createdAt,value
2022-11-15T00:00:22.928Z,1.50
2022-11-15T00:00:49.202Z,1.41
2022-11-15T00:01:19.927Z,1.64
2022-11-15T00:01:45.854Z,1.63
2022-11-15T00:02:11.816Z,1.42
2022-11-15T00:02:37.818Z,1.44
2022-11-15T00:03:03.807Z,1.56
2022-11-15T00:03:29.988Z,1.58
2022-11-15T00:03:56.274Z,1.50
2022-11-15T00:04:22.196Z,1.56
2022-11-15T00:04:48.240Z,1.60
2022-11-15T00:05:14.456Z,1.59
2022-11-15T00:05:40.243Z,1.44
2022-11-15T00:06:06.658Z,1.46
2022-11-15T00:06:32.810Z,1.45
2022-11-15T00:07:04.299Z,1.60
2022-11-15T00:07:54.489Z,1.63
2022-11-15T00:08:18.371Z,1.60
2022-11-15T00:08:44.537Z,1.42
2022-11-15T00:09:10.371Z,1.43
2022-11-15T00:09:36.584Z,1.49
2022-11-15T00:10:02.825Z,1.50
2022-11-15T00:10:29.002Z,1.58
2022-11-15T00:11:00.038Z,1.65
2022-11-15T00:11:26.199Z,1.50
2022-11-15T00:11:53.174Z,1.52
2022-11-15T00:12:18.829Z,1.60
2022-11-15T00:12:44.996Z,1.51
2022-11-15T00:13:13.524Z,1.44
2022-11-15T00:13:39.668Z,1.69
2022-11-15T00:14:05.493Z,1.89
2022-11-15T00:14:31.368Z,1.94
2022-11-15T00:14:57.395Z,1.79
2022-11-15T00:15:26.162Z,1.84
2022-11-15T00:15:52.311Z,1.85
2022-11-15T00:16:18.537Z,1.80
2022-11-15T00:16:44.434Z,1.77
2022-11-15T00:17:10.297Z,1.71
2022-11-15T00:17:36.334Z,1.76
2022-11-15T00:18:02.370Z,1.66
2022-11-15T00:18:29.677Z,1.95
2022-11-15T00:18:55.816Z,1.90
2022-11-15T00:19:21.523Z,1.98
2022-11-15T00:19:47.598Z,1.86
2022-11-15T00:20:14.051Z,1.92
2022-11-15T00:20:44.034Z,1.69
2022-11-15T00:21:15.570Z,1.88
2022-11-15T00:21:41.567Z,1.92
2022-11-15T00:22:07.363Z,1.80
2022-11-15T00:22:35.094Z,1.80
2022-11-15T00:23:01.171Z,1.83
2022-11-15T00:23:26.961Z,1.75
2022-11-15T00:23:52.749Z,2.03
2022-11-15T00:24:18.831Z,2.50
2022-11-15T00:24:44.786Z,2.29
2022-11-15T00:25:11.018Z,2.06
2022-11-15T00:25:36.988Z,1.88
2022-11-15T00:26:03.301Z,1.98
2022-11-15T00:26:30.023Z,2.04
2022-11-15T00:26:56.304Z,1.98
2022-11-15T00:27:23.445Z,1.91
2022-11-15T00:27:49.477Z,1.89
2022-11-15T00:28:18.235Z,1.96
2022-11-15T00:28:44.547Z,1.92
2022-11-15T00:29:10.263Z,2.14
2022-11-15T00:29:36.083Z,2.14
2022-11-15T00:30:01.909Z,1.95
2022-11-15T00:30:29.790Z,2.13
2022-11-15T00:31:01.083Z,2.08
2022-11-15T00:31:27.044Z,1.92
2022-11-15T00:31:53.659Z,2.00
2022-11-15T00:32:19.687Z,2.00
2022-11-15T00:32:45.479Z,2.00
2022-11-15T00:33:11.723Z,2.03
2022-11-15T00:33:37.721Z,2.16
2022-11-15T00:34:04.423Z,1.99
2022-11-15T00:34:30.183Z,1.92
2022-11-15T00:34:56.162Z,2.17
2022-11-15T00:35:22.725Z,2.13
2022-11-15T00:35:48.562Z,2.03
2022-11-15T00:36:14.494Z,1.95
2022-11-15T00:36:40.584Z,2.01
2022-11-15T00:37:08.685Z,2.16
2022-11-15T00:37:34.567Z,2.08
2022-11-15T00:38:01.232Z,2.20
2022-11-15T00:38:27.103Z,2.09
2022-11-15T00:38:52.825Z,1.94
2022-11-15T00:39:18.728Z,2.20
2022-11-15T00:39:45.456Z,2.16
2022-11-15T00:40:14.037Z,2.00
2022-11-15T00:40:39.751Z,1.91
2022-11-15T00:41:09.578Z,1.96
2022-11-15T00:41:36.003Z,2.03
2022-11-15T00:42:01.786Z,1.96
2022-11-15T00:42:27.773Z,2.00
2022-11-15T00:42:53.810Z,2.13
2022-11-15T00:43:22.642Z,2.30
2022-11-15T00:43:48.790Z,2.29
2022-11-15T00:44:14.649Z,2.19
2022-11-15T00:44:40.808Z,2.20
2022-11-15T00:45:07.536Z,2.03
2022-11-15T00:45:33.563Z,2.16
2022-11-15T00:45:59.860Z,2.06
2022-11-15T00:46:25.980Z,2.14
2022-11-15T00:46:51.962Z,2.16
2022-11-15T00:47:17.824Z,2.10
2022-11-15T00:47:47.178Z,1.90
2022-11-15T00:48:13.118Z,1.90
2022-11-15T00:48:39.883Z,2.05
2022-11-15T00:49:05.970Z,2.24
2022-11-15T00:49:31.740Z,2.25
2022-11-15T00:49:57.945Z,2.21
2022-11-15T00:50:24.011Z,2.24
2022-11-15T00:50:50.664Z,2.15
2022-11-15T00:51:16.496Z,2.29
2022-11-15T00:51:42.653Z,2.19
2022-11-15T00:52:08.714Z,2.05
2022-11-15T00:52:34.664Z,2.01
2022-11-15T00:53:00.487Z,2.04
2022-11-15T00:53:26.532Z,2.17
2022-11-15T00:53:52.531Z,2.42
2022-11-15T00:54:18.625Z,2.21
2022-11-15T00:54:44.798Z,2.20
2022-11-15T00:55:20.540Z,2.10
2022-11-15T00:55:46.320Z,2.25
2022-11-15T00:56:12.500Z,2.24
2022-11-15T00:56:38.490Z,2.21
2022-11-15T00:57:04.252Z,2.16
2022-11-15T00:57:30.220Z,2.09
2022-11-15T00:57:56.323Z,2.06
2022-11-15T00:58:22.157Z,2.06
2022-11-15T00:58:48.287Z,2.26
2022-11-15T00:59:14.058Z,2.09
2022-11-15T00:59:39.832Z,2.22
2022-11-15T01:00:08.358Z,2.06
2022-11-15T01:00:34.741Z,2.30
2022-11-15T01:01:14.365Z,2.24
2022-11-15T01:01:40.600Z,1.99
